createdAt,value
2023-01-26T00:02:11.068Z,99078.03
2023-01-26T00:04:37.388Z,99082.84
2023-01-26T00:07:03.727Z,99095.16
2023-01-26T00:09:30.188Z,99099.41
2023-01-26T00:11:56.514Z,99094.59
2023-01-26T00:14:22.825Z,99093.34
2023-01-26T00:16:49.151Z,99087.41
2023-01-26T00:19:15.493Z,99080.13
2023-01-26T00:21:41.820Z,99078.59
2023-01-26T00:24:08.170Z,99082.31
2023-01-26T00:26:34.516Z,99074.56
2023-01-26T00:29:01.616Z,99066.47
2023-01-26T00:31:28.156Z,99076.34
2023-01-26T00:33:54.980Z,99075.00
2023-01-26T00:36:21.308Z,99065.41
2023-01-26T00:38:47.687Z,99062.72
2023-01-26T00:41:32.920Z,99059.50
2023-01-26T00:43:59.537Z,99064.28
2023-01-26T00:46:25.888Z,99070.69
2023-01-26T00:48:52.278Z,99068.25
2023-01-26T00:51:18.632Z,99057.78
2023-01-26T00:53:44.947Z,99051.63
2023-01-26T00:56:11.267Z,99055.59
2023-01-26T00:58:37.602Z,99055.00
2023-01-26T01:01:03.992Z,99053.09
2023-01-26T01:03:30.435Z,99049.06
2023-01-26T01:05:56.747Z,99048.72
2023-01-26T01:08:23.061Z,99042.28
2023-01-26T01:10:49.361Z,99040.13
2023-01-26T01:13:15.683Z,99036.09
2023-01-26T01:15:41.995Z,99036.34
2023-01-26T01:18:08.309Z,99033.59
2023-01-26T01:20:34.626Z,99036.53
2023-01-26T01:23:01.189Z,99029.81
2023-01-26T01:25:27.500Z,99033.75
2023-01-26T01:27:53.818Z,99028.69
2023-01-26T01:30:20.127Z,99023.34
2023-01-26T01:32:49.625Z,99019.56
2023-01-26T01:35:15.943Z,99023.31
2023-01-26T01:37:42.284Z,99024.63
2023-01-26T01:40:11.827Z,99014.19
2023-01-26T01:42:38.374Z,99020.84
2023-01-26T01:45:23.266Z,99016.78
2023-01-26T01:47:49.606Z,99011.13
2023-01-26T01:50:15.923Z,99006.31
2023-01-26T01:52:42.284Z,99013.75
2023-01-26T01:55:08.909Z,99016.66
2023-01-26T01:57:47.015Z,99009.47
2023-01-26T02:00:14.108Z,99006.53
2023-01-26T02:02:41.094Z,98999.13
2023-01-26T02:05:09.184Z,99002.28
2023-01-26T02:07:35.499Z,98994.78
2023-01-26T02:10:20.423Z,99004.06
2023-01-26T02:12:47.375Z,98997.06
2023-01-26T02:15:13.726Z,98990.38
2023-01-26T02:17:40.099Z,98992.47
2023-01-26T02:20:28.433Z,98983.09
2023-01-26T02:22:57.808Z,98976.66
2023-01-26T02:25:36.964Z,98978.78
2023-01-26T02:28:03.287Z,98979.25
2023-01-26T02:30:29.655Z,98970.72
2023-01-26T02:32:55.991Z,98964.59
2023-01-26T02:35:22.525Z,98966.94
2023-01-26T02:37:48.863Z,98956.22
2023-01-26T02:40:21.298Z,98966.28
2023-01-26T02:42:47.613Z,98968.16
2023-01-26T02:45:14.680Z,98962.72
2023-01-26T02:47:41.191Z,98959.25
2023-01-26T02:50:09.332Z,98956.59
2023-01-26T02:52:35.975Z,98957.06
2023-01-26T02:55:20.969Z,98956.53
2023-01-26T02:57:47.309Z,98953.38
2023-01-26T03:00:14.682Z,98955.53
2023-01-26T03:02:41.135Z,98952.06
2023-01-26T03:05:07.473Z,98951.25
2023-01-26T03:07:33.837Z,98954.19
2023-01-26T03:10:00.193Z,98952.81
2023-01-26T03:12:26.731Z,98957.91
2023-01-26T03:15:11.957Z,98953.88
2023-01-26T03:17:38.403Z,98954.41
2023-01-26T03:20:23.761Z,98955.72
2023-01-26T03:23:08.754Z,98954.59
2023-01-26T03:25:54.662Z,98963.31
2023-01-26T03:28:22.357Z,98962.84
2023-01-26T03:30:49.647Z,98959.13
2023-01-26T03:33:16.297Z,98954.84
2023-01-26T03:35:42.604Z,98967.03
2023-01-26T03:38:08.920Z,98960.34
2023-01-26T03:40:53.731Z,98952.84
2023-01-26T03:43:38.607Z,98954.94
2023-01-26T03:46:24.029Z,98948.75
2023-01-26T03:49:09.166Z,98942.94
2023-01-26T03:51:54.006Z,98941.22
2023-01-26T03:54:39.075Z,98939.28
2023-01-26T03:57:05.394Z,98936.41
2023-01-26T03:59:40.981Z,98937.69
2023-01-26T04:02:26.534Z,98937.13
2023-01-26T04:05:11.940Z,98937.38
2023-01-26T04:07:56.704Z,98933.41
2023-01-26T04:10:23.010Z,98936.63
2023-01-26T04:13:07.960Z,98941.16
2023-01-26T04:15:53.906Z,98932.38
2023-01-26T04:18:38.914Z,98935.28
2023-01-26T04:21:23.726Z,98935.75
2023-01-26T04:23:50.516Z,98930.94
2023-01-26T04:26:16.882Z,98945.06
2023-01-26T04:28:43.208Z,98944.72
2023-01-26T04:31:09.611Z,98942.88
2023-01-26T04:33:35.973Z,98940.47
2023-01-26T04:36:02.927Z,98935.94
2023-01-26T04:38:29.270Z,98924.47
2023-01-26T04:40:55.667Z,98921.25
2023-01-26T04:43:21.998Z,98914.78
2023-01-26T04:45:58.453Z,98908.91
2023-01-26T04:48:24.812Z,98912.84
2023-01-26T04:50:55.019Z,98907.22
2023-01-26T04:53:21.355Z,98903.19
2023-01-26T04:55:47.932Z,98904.00
2023-01-26T04:58:14.266Z,98900.53
2023-01-26T05:00:40.613Z,98902.38
2023-01-26T05:03:08.951Z,98895.69
2023-01-26T05:05:37.042Z,98900.44
2023-01-26T05:08:04.027Z,98895.84
2023-01-26T05:10:30.368Z,98899.31
2023-01-26T05:12:56.695Z,98911.28
2023-01-26T05:15:23.028Z,98907.19
2023-01-26T05:17:49.371Z,98910.09
2023-01-26T05:20:15.859Z,98910.44
2023-01-26T05:22:42.223Z,98910.78
2023-01-26T05:25:08.936Z,98915.88
2023-01-26T05:27:35.297Z,98921.41
2023-01-26T05:30:01.694Z,98924.31
2023-01-26T05:32:28.353Z,98925.13
2023-01-26T05:34:54.727Z,98914.63
2023-01-26T05:37:21.038Z,98921.66
2023-01-26T05:39:47.365Z,98924.78
2023-01-26T05:42:13.672Z,98921.81
2023-01-26T05:44:40.064Z,98924.22
2023-01-26T05:47:06.375Z,98921.31
2023-01-26T05:49:32.711Z,98926.28
2023-01-26T05:51:59.027Z,98929.53
2023-01-26T05:54:25.368Z,98933.25
2023-01-26T05:56:53.290Z,98929.78
2023-01-26T05:59:19.615Z,98931.72
2023-01-26T06:01:45.935Z,98927.44
2023-01-26T06:04:12.343Z,98932.56
2023-01-26T06:06:38.679Z,98927.25
2023-01-26T06:09:05.053Z,98931.31
2023-01-26T06:11:31.567Z,98931.53
2023-01-26T06:13:57.895Z,98928.88
2023-01-26T06:16:24.306Z,98926.47
2023-01-26T06:18:50.685Z,98929.13
2023-01-26T06:21:16.994Z,98924.84
2023-01-26T06:23:43.343Z,98928.31
2023-01-26T06:26:10.950Z,98933.63
2023-01-26T06:28:37.389Z,98936.06
2023-01-26T06:31:04.153Z,98928.00
2023-01-26T06:33:37.183Z,98930.41
2023-01-26T06:36:04.245Z,98939.59
2023-01-26T06:38:30.863Z,98941.19
2023-01-26T06:41:03.372Z,98931.63
2023-01-26T06:43:30.706Z,98927.91
2023-01-26T06:46:00.344Z,98929.22
2023-01-26T06:48:27.119Z,98919.84
2023-01-26T06:50:53.518Z,98919.28
2023-01-26T06:53:26.061Z,98917.66
2023-01-26T06:55:52.389Z,98930.94
2023-01-26T06:58:18.698Z,98922.75
2023-01-26T07:00:45.056Z,98933.84
2023-01-26T07:03:11.712Z,98936.94
2023-01-26T07:05:38.025Z,98931.63
2023-01-26T07:08:06.360Z,98937.63
2023-01-26T07:10:32.701Z,98935.84
2023-01-26T07:12:59.014Z,98937.25
2023-01-26T07:15:25.345Z,98939.66
2023-01-26T07:17:51.669Z,98936.44
2023-01-26T07:20:18.036Z,98941.25
2023-01-26T07:22:44.365Z,98938.03
2023-01-26T07:25:10.674Z,98941.03
2023-01-26T07:27:36.991Z,98944.56
2023-01-26T07:30:04.326Z,98939.94
2023-01-26T07:32:31.579Z,98938.31
2023-01-26T07:34:57.928Z,98940.03
2023-01-26T07:37:27.316Z,98941.84
2023-01-26T07:39:53.666Z,98942.72
2023-01-26T07:42:19.999Z,98947.53
2023-01-26T07:44:46.338Z,98934.22
2023-01-26T07:47:12.649Z,98945.06
2023-01-26T07:49:39.057Z,98943.09
2023-01-26T07:52:05.630Z,98954.72
2023-01-26T07:54:32.019Z,98960.25
2023-01-26T07:56:58.434Z,98963.50
2023-01-26T07:59:24.783Z,98959.47
2023-01-26T08:01:51.139Z,98957.59
2023-01-26T08:04:17.668Z,98954.38
2023-01-26T08:06:44.037Z,98964.78
2023-01-26T08:09:10.507Z,98951.00
2023-01-26T08:11:36.814Z,98954.72
2023-01-26T08:14:03.142Z,98956.31
2023-01-26T08:16:29.510Z,98964.78
2023-01-26T08:18:55.849Z,98962.13
2023-01-26T08:21:22.178Z,98961.06
2023-01-26T08:23:49.222Z,98955.91
2023-01-26T08:26:15.572Z,98951.88
2023-01-26T08:28:41.936Z,98945.44
2023-01-26T08:31:11.219Z,98954.72
2023-01-26T08:33:38.140Z,98957.63
2023-01-26T08:36:05.783Z,98950.38
2023-01-26T08:38:32.401Z,98954.66
2023-01-26T08:40:59.276Z,98956.06
2023-01-26T08:43:25.596Z,98959.72
2023-01-26T08:45:51.960Z,98963.44
2023-01-26T08:48:18.289Z,98960.66
2023-01-26T08:50:44.769Z,98969.38
2023-01-26T08:53:11.091Z,98959.53
2023-01-26T08:55:37.514Z,98954.59
2023-01-26T08:58:03.990Z,98953.78
2023-01-26T09:00:30.322Z,98958.47
2023-01-26T09:03:03.139Z,98959.47
2023-01-26T09:05:33.311Z,98960.53
2023-01-26T09:07:59.620Z,98962.84
2023-01-26T09:10:25.968Z,98959.06
2023-01-26T09:12:52.274Z,98966.25
2023-01-26T09:15:18.603Z,98966.25
2023-01-26T09:17:44.979Z,98971.03
2023-01-26T09:20:11.782Z,98974.88
2023-01-26T09:22:38.290Z,98975.16
2023-01-26T09:25:04.800Z,98966.03
2023-01-26T09:27:31.119Z,98973.44
2023-01-26T09:29:57.616Z,98970.47
2023-01-26T09:32:23.935Z,98960.78
2023-01-26T09:34:50.453Z,98960.94
2023-01-26T09:37:16.808Z,98967.78
2023-01-26T09:39:43.576Z,98959.81
2023-01-26T09:42:18.878Z,98965.72
2023-01-26T09:44:50.700Z,98964.16
2023-01-26T09:47:17.352Z,98967.25
2023-01-26T09:49:49.864Z,98967.16
2023-01-26T09:52:20.657Z,98967.50
2023-01-26T09:54:49.462Z,98967.44
2023-01-26T09:57:19.666Z,98958.13
2023-01-26T09:59:53.923Z,98953.59
2023-01-26T10:02:22.879Z,98951.75
2023-01-26T10:04:50.746Z,98956.50
2023-01-26T10:07:17.217Z,98953.13
2023-01-26T10:09:46.057Z,98951.38
2023-01-26T10:12:23.459Z,98951.06
2023-01-26T10:14:50.486Z,98948.41
2023-01-26T10:17:19.320Z,98950.03
2023-01-26T10:19:47.326Z,98948.16
2023-01-26T10:22:15.278Z,98944.84
2023-01-26T10:24:41.605Z,98939.28
2023-01-26T10:27:10.528Z,98939.69
2023-01-26T10:29:37.103Z,98947.66
2023-01-26T10:32:03.619Z,98956.19
2023-01-26T10:34:29.991Z,98944.53
2023-01-26T10:37:09.639Z,98938.16
2023-01-26T10:39:37.613Z,98933.31
2023-01-26T10:42:03.932Z,98939.69
2023-01-26T10:44:30.177Z,98929.28
2023-01-26T10:47:06.725Z,98923.13
2023-01-26T10:49:33.096Z,98927.44
2023-01-26T10:52:28.791Z,98919.66
2023-01-26T10:55:19.772Z,98917.19
2023-01-26T10:57:46.351Z,98919.84
2023-01-26T11:00:18.705Z,98919.84
2023-01-26T11:02:49.670Z,98909.94
2023-01-26T11:05:18.911Z,98899.47
2023-01-26T11:07:45.771Z,98898.59
2023-01-26T11:10:19.079Z,98897.88
2023-01-26T11:12:45.626Z,98897.06
2023-01-26T11:15:30.053Z,98898.44
2023-01-26T11:18:00.377Z,98896.09
2023-01-26T11:20:41.909Z,98895.34
2023-01-26T11:23:19.670Z,98894.63
2023-01-26T11:25:54.799Z,98893.34
2023-01-26T11:28:41.400Z,98888.50
2023-01-26T11:31:16.998Z,98893.50
2023-01-26T11:33:50.703Z,98886.81
2023-01-26T11:36:23.036Z,98885.28
2023-01-26T11:39:00.288Z,98894.88
2023-01-26T11:41:45.491Z,98893.50
2023-01-26T11:44:21.190Z,98884.97
2023-01-26T11:46:50.473Z,98885.44
2023-01-26T11:49:16.724Z,98881.91
2023-01-26T11:51:43.022Z,98877.06
2023-01-26T11:54:27.921Z,98882.88
2023-01-26T11:56:57.233Z,98875.94
2023-01-26T11:59:39.845Z,98879.09
2023-01-26T12:02:21.835Z,98886.66
2023-01-26T12:04:48.230Z,98881.25
2023-01-26T12:07:30.423Z,98882.84
2023-01-26T12:09:56.747Z,98880.75
2023-01-26T12:12:42.990Z,98874.94
2023-01-26T12:15:29.823Z,98874.13
2023-01-26T12:17:59.648Z,98870.44
2023-01-26T12:20:36.392Z,98862.69
2023-01-26T12:23:02.667Z,98866.66
2023-01-26T12:25:29.261Z,98864.00
2023-01-26T12:28:14.214Z,98859.47
2023-01-26T12:30:47.494Z,98856.47
2023-01-26T12:33:13.920Z,98862.06
2023-01-26T12:36:06.491Z,98858.88
2023-01-26T12:39:07.624Z,98854.63
2023-01-26T12:41:46.287Z,98854.88
2023-01-26T12:44:32.826Z,98853.81
2023-01-26T12:47:01.384Z,98854.06
2023-01-26T12:49:40.083Z,98847.69
2023-01-26T12:52:07.225Z,98849.28
2023-01-26T12:54:52.430Z,98851.97
2023-01-26T12:57:20.159Z,98840.03
2023-01-26T12:59:48.905Z,98841.25
2023-01-26T13:02:15.832Z,98840.19
2023-01-26T13:04:47.869Z,98836.41
2023-01-26T13:07:34.232Z,98838.84
2023-01-26T13:10:17.586Z,98829.47
2023-01-26T13:12:44.923Z,98838.16
2023-01-26T13:15:13.522Z,98837.75
2023-01-26T13:17:53.004Z,98832.69
2023-01-26T13:20:45.647Z,98830.91
2023-01-26T13:23:30.550Z,98833.63
2023-01-26T13:26:17.934Z,98838.44
2023-01-26T13:28:44.728Z,98830.22
2023-01-26T13:31:11.239Z,98833.19
2023-01-26T13:33:37.621Z,98823.06
2023-01-26T13:36:04.344Z,98823.88
2023-01-26T13:38:33.245Z,98826.84
2023-01-26T13:40:59.567Z,98832.25
2023-01-26T13:43:34.146Z,98837.06
2023-01-26T13:46:14.255Z,98840.81
2023-01-26T13:48:44.450Z,98838.25
2023-01-26T13:51:15.623Z,98834.91
2023-01-26T13:53:49.271Z,98835.97
2023-01-26T13:56:22.224Z,98840.34
2023-01-26T13:58:48.567Z,98833.19
2023-01-26T14:01:15.162Z,98841.41
2023-01-26T14:03:41.526Z,98834.50
2023-01-26T14:06:18.788Z,98839.59
2023-01-26T14:08:47.814Z,98842.59
2023-01-26T14:11:18.155Z,98838.84
2023-01-26T14:13:44.882Z,98843.38
2023-01-26T14:16:19.665Z,98840.97
2023-01-26T14:18:47.992Z,98846.31
2023-01-26T14:21:16.063Z,98848.97
2023-01-26T14:23:42.389Z,98837.50
2023-01-26T14:26:19.444Z,98846.63
2023-01-26T14:28:45.784Z,98845.81
2023-01-26T14:31:24.552Z,98849.03
2023-01-26T14:33:53.174Z,98851.69
2023-01-26T14:36:19.748Z,98856.22
2023-01-26T14:38:46.790Z,98851.97
2023-01-26T14:41:33.688Z,98849.28
2023-01-26T14:44:05.872Z,98848.22
2023-01-26T14:46:35.806Z,98850.91
2023-01-26T14:49:09.248Z,98849.53
2023-01-26T14:51:36.695Z,98861.00
2023-01-26T14:54:10.844Z,98859.38
2023-01-26T14:56:37.506Z,98853.03
2023-01-26T14:59:04.044Z,98854.84
2023-01-26T15:01:30.368Z,98854.06
2023-01-26T15:04:06.443Z,98858.84
2023-01-26T15:06:32.782Z,98854.00
2023-01-26T15:09:06.216Z,98853.44
2023-01-26T15:12:00.186Z,98854.25
2023-01-26T15:14:38.591Z,98857.97
2023-01-26T15:17:05.066Z,98855.53
2023-01-26T15:19:32.637Z,98860.88
2023-01-26T15:21:59.841Z,98856.59
2023-01-26T15:24:26.194Z,98861.56
2023-01-26T15:26:52.550Z,98851.63
2023-01-26T15:29:24.400Z,98858.09
2023-01-26T15:31:51.891Z,98853.75
2023-01-26T15:34:31.879Z,98855.56
2023-01-26T15:36:58.577Z,98850.44
2023-01-26T15:39:24.898Z,98853.63
2023-01-26T15:41:59.503Z,98862.41
2023-01-26T15:44:25.870Z,98855.78
2023-01-26T15:46:52.227Z,98862.75
2023-01-26T15:49:20.024Z,98861.91
2023-01-26T15:51:46.373Z,98867.50
2023-01-26T15:54:12.699Z,98861.63
2023-01-26T15:56:39.054Z,98863.22
2023-01-26T15:59:05.471Z,98866.94
2023-01-26T16:01:31.817Z,98873.56
2023-01-26T16:03:58.131Z,98864.44
2023-01-26T16:06:25.426Z,98868.97
2023-01-26T16:08:52.168Z,98861.97
2023-01-26T16:11:18.694Z,98867.38
2023-01-26T16:13:53.965Z,98868.91
2023-01-26T16:16:27.838Z,98874.16
2023-01-26T16:18:54.359Z,98874.66
2023-01-26T16:21:24.832Z,98868.78
2023-01-26T16:23:51.194Z,98870.63
2023-01-26T16:26:18.000Z,98867.19
2023-01-26T16:28:44.432Z,98860.16
2023-01-26T16:31:13.867Z,98864.44
2023-01-26T16:33:40.261Z,98860.00
2023-01-26T16:36:06.570Z,98861.03
2023-01-26T16:38:32.894Z,98868.53
2023-01-26T16:40:59.207Z,98861.78
2023-01-26T16:43:25.695Z,98860.63
2023-01-26T16:45:52.462Z,98862.13
2023-01-26T16:48:18.899Z,98850.59
2023-01-26T16:50:45.276Z,98851.44
2023-01-26T16:53:19.148Z,98859.56
2023-01-26T16:55:45.461Z,98854.13
2023-01-26T16:58:11.830Z,98847.75
2023-01-26T17:00:38.362Z,98844.09
2023-01-26T17:03:06.406Z,98845.50
2023-01-26T17:05:32.735Z,98849.06
2023-01-26T17:07:59.061Z,98850.16
2023-01-26T17:10:25.438Z,98847.56
2023-01-26T17:12:51.796Z,98857.47
2023-01-26T17:15:18.247Z,98860.72
2023-01-26T17:17:45.610Z,98855.41
2023-01-26T17:20:18.871Z,98858.13
2023-01-26T17:22:45.810Z,98861.69
2023-01-26T17:25:15.227Z,98864.06
2023-01-26T17:27:43.360Z,98869.63
2023-01-26T17:30:10.058Z,98866.16
2023-01-26T17:32:36.377Z,98874.72
2023-01-26T17:35:02.690Z,98877.41
2023-01-26T17:37:29.270Z,98887.00
2023-01-26T17:39:55.816Z,98884.34
2023-01-26T17:42:22.266Z,98888.91
2023-01-26T17:44:48.596Z,98887.84
2023-01-26T17:47:14.931Z,98883.06
2023-01-26T17:49:41.250Z,98887.84
2023-01-26T17:52:08.239Z,98889.75
2023-01-26T17:54:34.637Z,98890.81
2023-01-26T17:57:01.020Z,98887.09
2023-01-26T17:59:27.382Z,98888.16
2023-01-26T18:01:53.810Z,98894.56
2023-01-26T18:04:20.193Z,98900.94
2023-01-26T18:06:46.512Z,98891.06
2023-01-26T18:09:12.851Z,98887.56
2023-01-26T18:11:39.207Z,98898.84
2023-01-26T18:14:05.595Z,98891.13
2023-01-26T18:16:31.941Z,98895.59
2023-01-26T18:18:58.512Z,98898.22
2023-01-26T18:21:25.473Z,98903.03
2023-01-26T18:23:52.649Z,98899.56
2023-01-26T18:26:19.760Z,98890.22
2023-01-26T18:28:46.183Z,98901.19
2023-01-26T18:31:13.345Z,98898.22
2023-01-26T18:33:39.686Z,98892.94
2023-01-26T18:36:06.527Z,98902.84
2023-01-26T18:38:32.901Z,98899.38
2023-01-26T18:40:59.213Z,98901.50
2023-01-26T18:43:27.792Z,98903.09
2023-01-26T18:45:54.174Z,98900.13
2023-01-26T18:48:20.692Z,98898.53
2023-01-26T18:50:50.351Z,98903.06
2023-01-26T18:53:16.684Z,98903.06
2023-01-26T18:55:42.994Z,98902.53
2023-01-26T18:58:09.314Z,98894.56
2023-01-26T19:00:36.307Z,98898.84
2023-01-26T19:03:02.631Z,98902.06
2023-01-26T19:05:29.570Z,98893.06
2023-01-26T19:07:55.941Z,98900.88
2023-01-26T19:10:22.269Z,98901.16
2023-01-26T19:12:49.089Z,98896.88
2023-01-26T19:15:15.403Z,98887.53
2023-01-26T19:17:44.715Z,98899.13
2023-01-26T19:20:12.117Z,98903.19
2023-01-26T19:22:38.463Z,98901.19
2023-01-26T19:25:04.961Z,98894.13
2023-01-26T19:27:31.535Z,98907.47
2023-01-26T19:29:57.870Z,98897.59
2023-01-26T19:32:24.199Z,98905.59
2023-01-26T19:34:50.518Z,98911.19
2023-01-26T19:37:16.849Z,98907.72
2023-01-26T19:39:43.173Z,98906.38
2023-01-26T19:42:09.494Z,98907.16
2023-01-26T19:44:35.817Z,98910.63
2023-01-26T19:47:02.138Z,98907.94
2023-01-26T19:49:28.464Z,98916.19
2023-01-26T19:51:55.373Z,98903.91
2023-01-26T19:54:21.679Z,98906.03
2023-01-26T19:56:48.202Z,98903.03
2023-01-26T19:59:14.518Z,98901.50
2023-01-26T20:01:40.932Z,98901.19
2023-01-26T20:04:08.830Z,98894.25
2023-01-26T20:06:35.135Z,98901.97
2023-01-26T20:09:03.407Z,98898.75
2023-01-26T20:11:29.819Z,98908.09
2023-01-26T20:13:56.720Z,98904.34
2023-01-26T20:16:23.099Z,98902.72
2023-01-26T20:18:49.459Z,98904.59
2023-01-26T20:21:15.818Z,98911.28
2023-01-26T20:23:53.556Z,98907.78
2023-01-26T20:26:20.941Z,98902.41
2023-01-26T20:28:47.657Z,98905.59
2023-01-26T20:31:15.615Z,98897.81
2023-01-26T20:33:42.272Z,98902.09
2023-01-26T20:36:09.281Z,98908.47
2023-01-26T20:38:35.622Z,98903.38
2023-01-26T20:41:12.157Z,98909.22
2023-01-26T20:43:41.389Z,98917.50
2023-01-26T20:46:08.290Z,98916.19
2023-01-26T20:48:34.753Z,98921.22
2023-01-26T20:51:02.517Z,98925.44
2023-01-26T20:53:28.865Z,98928.38
2023-01-26T20:55:58.651Z,98925.94
2023-01-26T20:58:25.241Z,98931.81
2023-01-26T21:00:52.146Z,98920.81
2023-01-26T21:03:20.035Z,98927.75
2023-01-26T21:05:46.447Z,98922.13
2023-01-26T21:08:12.772Z,98917.59
2023-01-26T21:10:39.088Z,98917.03
2023-01-26T21:13:05.429Z,98914.38
2023-01-26T21:15:31.746Z,98916.78
2023-01-26T21:17:58.071Z,98911.00
2023-01-26T21:20:24.510Z,98909.47
2023-01-26T21:22:50.846Z,98911.13
2023-01-26T21:25:17.163Z,98911.34
2023-01-26T21:27:43.483Z,98907.47
2023-01-26T21:30:10.277Z,98903.03
2023-01-26T21:32:36.818Z,98904.97
2023-01-26T21:35:03.125Z,98894.25
2023-01-26T21:37:29.431Z,98899.22
2023-01-26T21:39:55.741Z,98897.63
2023-01-26T21:42:22.047Z,98902.94
2023-01-26T21:45:06.997Z,98892.50
2023-01-26T21:47:33.331Z,98893.94
2023-01-26T21:49:59.779Z,98891.03
2023-01-26T21:52:44.939Z,98895.88
2023-01-26T21:55:11.247Z,98895.16
2023-01-26T21:57:56.191Z,98899.50
2023-01-26T22:00:22.540Z,98902.84
2023-01-26T22:02:48.866Z,98898.53
2023-01-26T22:05:16.633Z,98904.75
2023-01-26T22:07:42.970Z,98904.78
2023-01-26T22:10:09.857Z,98903.72
2023-01-26T22:12:36.521Z,98904.81
2023-01-26T22:15:02.833Z,98903.50
2023-01-26T22:17:29.195Z,98900.00
2023-01-26T22:19:56.185Z,98906.41
2023-01-26T22:22:22.516Z,98913.13
2023-01-26T22:24:48.834Z,98910.72
2023-01-26T22:27:15.157Z,98913.41
2023-01-26T22:29:41.716Z,98913.69
2023-01-26T22:32:08.044Z,98916.09
2023-01-26T22:34:34.580Z,98919.03
2023-01-26T22:37:00.900Z,98915.53
2023-01-26T22:39:27.218Z,98918.25
2023-01-26T22:41:53.551Z,98911.81
2023-01-26T22:44:19.882Z,98917.69
2023-01-26T22:46:46.195Z,98910.22
2023-01-26T22:49:12.522Z,98913.94
2023-01-26T22:51:38.884Z,98920.91
2023-01-26T22:54:05.338Z,98917.16
2023-01-26T22:56:31.696Z,98923.59
2023-01-26T22:59:00.098Z,98931.06
2023-01-26T23:01:27.711Z,98924.09
2023-01-26T23:03:54.212Z,98928.91
2023-01-26T23:06:20.635Z,98923.03
2023-01-26T23:08:47.035Z,98927.81
2023-01-26T23:11:13.273Z,98931.59
2023-01-26T23:13:42.140Z,98942.56
2023-01-26T23:16:08.779Z,98934.53
2023-01-26T23:18:35.149Z,98935.84
2023-01-26T23:21:01.546Z,98941.22
2023-01-26T23:23:28.251Z,98931.06
2023-01-26T23:25:54.672Z,98931.06
2023-01-26T23:28:24.938Z,98935.84
2023-01-26T23:30:51.756Z,98936.13
2023-01-26T23:33:18.079Z,98934.25
2023-01-26T23:35:44.465Z,98930.78
2023-01-26T23:38:11.179Z,98925.94
2023-01-26T23:40:37.659Z,98935.84
2023-01-26T23:43:16.189Z,98934.25
2023-01-26T23:45:44.969Z,98931.03
2023-01-26T23:48:11.360Z,98930.25
2023-01-26T23:50:37.675Z,98932.91
2023-01-26T23:53:03.981Z,98932.63
2023-01-26T23:55:30.291Z,98929.97
2023-01-26T23:57:56.601Z,98924.88
